sensor_id;sensor_type;location;lat;lon;timestamp;pressure;altitude;pressure_sealevel;temperature;humidity
71966;BME280;59836;52.132;5.442;2023-05-11T00:00:32;101493.47;;;12.82;100.00
71966;BME280;59836;52.132;5.442;2023-05-11T00:02:59;101488.00;;;12.82;100.00
71966;BME280;59836;52.132;5.442;2023-05-11T00:05:25;101486.38;;;12.81;100.00
71966;BME280;59836;52.132;5.442;2023-05-11T00:07:52;101488.00;;;12.82;100.00
71966;BME280;59836;52.132;5.442;2023-05-11T00:10:18;101489.09;;;12.81;100.00
71966;BME280;59836;52.132;5.442;2023-05-11T00:12:45;101486.94;;;12.83;100.00
71966;BME280;59836;52.132;5.442;2023-05-11T00:15:11;101487.47;;;12.85;100.00
71966;BME280;59836;52.132;5.442;2023-05-11T00:17:38;101487.47;;;12.85;100.00
71966;BME280;59836;52.132;5.442;2023-05-11T00:20:05;101477.66;;;12.84;100.00
71966;BME280;59836;52.132;5.442;2023-05-11T00:22:32;101484.19;;;12.83;100.00
71966;BME280;59836;52.132;5.442;2023-05-11T00:24:58;101474.94;;;12.84;100.00
71966;BME280;59836;52.132;5.442;2023-05-11T00:27:24;101474.13;;;12.83;100.00
71966;BME280;59836;52.132;5.442;2023-05-11T00:29:51;101460.78;;;12.82;100.00
71966;BME280;59836;52.132;5.442;2023-05-11T00:32:17;101456.97;;;12.83;100.00
71966;BME280;59836;52.132;5.442;2023-05-11T00:34:44;101464.59;;;12.81;100.00
71966;BME280;59836;52.132;5.442;2023-05-11T00:37:11;101470.28;;;12.79;100.00
71966;BME280;59836;52.132;5.442;2023-05-11T00:39:37;101475.75;;;12.79;100.00
71966;BME280;59836;52.132;5.442;2023-05-11T00:42:06;101479.56;;;12.78;100.00
71966;BME280;59836;52.132;5.442;2023-05-11T00:44:32;101477.13;;;12.77;100.00
71966;BME280;59836;52.132;5.442;2023-05-11T00:46:59;101475.19;;;12.77;100.00
71966;BME280;59836;52.132;5.442;2023-05-11T00:49:26;101479.84;;;12.77;100.00
71966;BME280;59836;52.132;5.442;2023-05-11T00:51:53;101476.03;;;12.78;100.00
71966;BME280;59836;52.132;5.442;2023-05-11T00:54:20;101481.47;;;12.78;100.00
71966;BME280;59836;52.132;5.442;2023-05-11T00:56:46;101486.38;;;12.81;100.00
71966;BME280;59836;52.132;5.442;2023-05-11T00:59:13;101481.47;;;12.78;100.00
71966;BME280;59836;52.132;5.442;2023-05-11T01:01:40;101478.75;;;12.78;100.00
71966;BME280;59836;52.132;5.442;2023-05-11T01:04:07;101481.47;;;12.78;100.00
71966;BME280;59836;52.132;5.442;2023-05-11T01:07:08;101476.03;;;12.78;100.00
71966;BME280;59836;52.132;5.442;2023-05-11T01:09:45;101468.94;;;12.77;100.00
71966;BME280;59836;52.132;5.442;2023-05-11T01:12:58;101478.72;;;12.73;100.00
71966;BME280;59836;52.132;5.442;2023-05-11T01:15:42;101479.28;;;12.69;100.00
71966;BME280;59836;52.132;5.442;2023-05-11T01:18:19;101484.72;;;12.69;100.00
71966;BME280;59836;52.132;5.442;2023-05-11T01:20:50;101479.81;;;12.66;100.00
71966;BME280;59836;52.132;5.442;2023-05-11T01:26:21;101482.50;;;12.61;100.00
71966;BME280;59836;52.132;5.442;2023-05-11T01:32:05;101485.22;;;12.56;100.00
71966;BME280;59836;52.132;5.442;2023-05-11T01:34:35;101482.50;;;12.56;100.00
71966;BME280;59836;52.132;5.442;2023-05-11T01:37:09;101477.59;;;12.58;100.00
71966;BME280;59836;52.132;5.442;2023-05-11T01:39:39;101483.03;;;12.58;100.00
71966;BME280;59836;52.132;5.442;2023-05-11T01:42:09;101486.31;;;12.55;100.00
71966;BME280;59836;52.132;5.442;2023-05-11T01:44:38;101480.84;;;12.50;100.00
71966;BME280;59836;52.132;5.442;2023-05-11T01:47:06;101478.66;;;12.52;100.00
71966;BME280;59836;52.132;5.442;2023-05-11T01:49:36;101480.31;;;12.53;100.00
71966;BME280;59836;52.132;5.442;2023-05-11T01:52:06;101487.38;;;12.54;100.00
71966;BME280;59836;52.132;5.442;2023-05-11T01:54:34;101493.66;;;12.54;100.00
71966;BME280;59836;52.132;5.442;2023-05-11T01:57:02;101494.47;;;12.55;100.00
71966;BME280;59836;52.132;5.442;2023-05-11T01:59:30;101490.09;;;12.54;100.00
71966;BME280;59836;52.132;5.442;2023-05-11T02:01:58;101495.00;;;12.52;100.00
71966;BME280;59836;52.132;5.442;2023-05-11T02:04:27;101493.63;;;12.49;100.00
71966;BME280;59836;52.132;5.442;2023-05-11T02:06:56;101496.06;;;12.46;100.00
71966;BME280;59836;52.132;5.442;2023-05-11T02:09:24;101493.34;;;12.46;100.00
71966;BME280;59836;52.132;5.442;2023-05-11T02:11:52;101494.41;;;12.45;100.00
71966;BME280;59836;52.132;5.442;2023-05-11T02:14:20;101487.34;;;12.44;100.00
71966;BME280;59836;52.132;5.442;2023-05-11T02:16:49;101492.78;;;12.44;100.00
71966;BME280;59836;52.132;5.442;2023-05-11T02:19:16;101490.06;;;12.44;100.00
71966;BME280;59836;52.132;5.442;2023-05-11T02:21:43;101483.53;;;12.45;100.00
71966;BME280;59836;52.132;5.442;2023-05-11T02:24:11;101499.88;;;12.45;100.00
71966;BME280;59836;52.132;5.442;2023-05-11T02:26:37;101491.69;;;12.39;100.00
71966;BME280;59836;52.132;5.442;2023-05-11T02:29:04;101498.75;;;12.40;100.00
71966;BME280;59836;52.132;5.442;2023-05-11T02:31:35;101493.06;;;12.42;100.00
71966;BME280;59836;52.132;5.442;2023-05-11T02:34:09;101495.78;;;12.42;100.00
71966;BME280;59836;52.132;5.442;2023-05-11T02:36:44;101501.22;;;12.42;100.00
71966;BME280;59836;52.132;5.442;2023-05-11T02:39:16;101492.78;;;12.44;100.00
71966;BME280;59836;52.132;5.442;2023-05-11T02:41:51;101490.63;;;12.46;100.00
71966;BME280;59836;52.132;5.442;2023-05-11T02:44:21;101491.44;;;12.46;100.00
71966;BME280;59836;52.132;5.442;2023-05-11T02:46:51;101488.19;;;12.44;100.00
71966;BME280;59836;52.132;5.442;2023-05-11T02:49:21;101494.97;;;12.47;100.00
71966;BME280;59836;52.132;5.442;2023-05-11T02:51:51;101495.25;;;12.45;100.00
71966;BME280;59836;52.132;5.442;2023-05-11T02:54:21;101496.91;;;12.46;100.00
71966;BME280;59836;52.132;5.442;2023-05-11T02:56:50;101489.53;;;12.47;100.00
71966;BME280;59836;52.132;5.442;2023-05-11T02:59:16;101489.28;;;12.48;100.00
71966;BME280;59836;52.132;5.442;2023-05-11T03:01:43;101496.63;;;12.48;100.00
71966;BME280;59836;52.132;5.442;2023-05-11T03:04:10;101501.81;;;12.49;100.00
71966;BME280;59836;52.132;5.442;2023-05-11T03:06:37;101500.97;;;12.49;100.00
71966;BME280;59836;52.132;5.442;2023-05-11T03:09:03;101504.78;;;12.48;100.00
71966;BME280;59836;52.132;5.442;2023-05-11T03:11:29;101503.66;;;12.44;100.00
71966;BME280;59836;52.132;5.442;2023-05-11T03:13:57;101499.88;;;12.45;100.00
71966;BME280;59836;52.132;5.442;2023-05-11T03:16:23;101496.59;;;12.43;100.00
71966;BME280;59836;52.132;5.442;2023-05-11T03:18:53;101491.69;;;12.39;100.00
71966;BME280;59836;52.132;5.442;2023-05-11T03:21:21;101497.66;;;12.42;100.00
71966;BME280;59836;52.132;5.442;2023-05-11T03:23:49;101503.41;;;12.45;100.00
71966;BME280;59836;52.132;5.442;2023-05-11T03:26:17;101497.69;;;12.47;100.00
71966;BME280;59836;52.132;5.442;2023-05-11T03:28:45;101492.81;;;12.49;100.00
71966;BME280;59836;52.132;5.442;2023-05-11T03:31:12;101488.44;;;12.48;100.00
71966;BME280;59836;52.132;5.442;2023-05-11T03:33:38;101484.66;;;12.49;100.00
71966;BME280;59836;52.132;5.442;2023-05-11T03:36:08;101480.84;;;12.50;100.00
71966;BME280;59836;52.132;5.442;2023-05-11T03:38:36;101473.50;;;12.50;100.00
71966;BME280;59836;52.132;5.442;2023-05-11T03:41:02;101480.03;;;12.49;100.00
71966;BME280;59836;52.132;5.442;2023-05-11T03:43:30;101479.19;;;12.49;100.00
71966;BME280;59836;52.132;5.442;2023-05-11T03:45:57;101483.28;;;12.46;100.00
71966;BME280;59836;52.132;5.442;2023-05-11T03:48:24;101476.47;;;12.44;100.00
71966;BME280;59836;52.132;5.442;2023-05-11T03:50:50;101480.28;;;12.43;100.00
71966;BME280;59836;52.132;5.442;2023-05-11T03:53:17;101481.91;;;12.44;100.00
71966;BME280;59836;52.132;5.442;2023-05-11T03:55:44;101482.75;;;12.44;100.00
71966;BME280;59836;52.132;5.442;2023-05-11T03:58:10;101477.53;;;12.43;100.00
71966;BME280;59836;52.132;5.442;2023-05-11T04:00:40;101481.91;;;12.44;100.00
71966;BME280;59836;52.132;5.442;2023-05-11T04:03:10;101482.44;;;12.40;100.00
71966;BME280;59836;52.132;5.442;2023-05-11T04:05:37;101487.06;;;12.40;100.00
71966;BME280;59836;52.132;5.442;2023-05-11T04:08:04;101481.63;;;12.40;100.00
71966;BME280;59836;52.132;5.442;2023-05-11T04:10:31;101491.44;;;12.41;100.00
71966;BME280;59836;52.132;5.442;2023-05-11T04:12:57;101481.91;;;12.44;100.00
71966;BME280;59836;52.132;5.442;2023-05-11T04:15:24;101480.28;;;12.43;100.00
71966;BME280;59836;52.132;5.442;2023-05-11T04:17:50;101481.09;;;12.43;100.00
71966;BME280;59836;52.132;5.442;2023-05-11T04:20:17;101485.72;;;12.43;100.00
71966;BME280;59836;52.132;5.442;2023-05-11T04:22:43;101492.78;;;12.44;100.00
71966;BME280;59836;52.132;5.442;2023-05-11T04:25:10;101488.19;;;12.44;100.00
71966;BME280;59836;52.132;5.442;2023-05-11T04:27:36;101493.31;;;12.40;100.00
71966;BME280;59836;52.132;5.442;2023-05-11T04:30:03;101505.03;;;12.41;100.00
71966;BME280;59836;52.132;5.442;2023-05-11T04:32:30;101503.66;;;12.44;100.00
71966;BME280;59836;52.132;5.442;2023-05-11T04:34:57;101515.66;;;12.48;100.00
71966;BME280;59836;52.132;5.442;2023-05-11T04:37:23;101506.41;;;12.49;100.00
71966;BME280;59836;52.132;5.442;2023-05-11T04:39:49;101505.31;;;12.50;100.00
71966;BME280;59836;52.132;5.442;2023-05-11T04:42:16;101503.44;;;12.50;100.00
71966;BME280;59836;52.132;5.442;2023-05-11T04:44:42;101504.25;;;12.51;100.00
71966;BME280;59836;52.132;5.442;2023-05-11T04:47:09;101504.25;;;12.51;100.00
71966;BME280;59836;52.132;5.442;2023-05-11T04:49:35;101501.00;;;12.54;100.00
71966;BME280;59836;52.132;5.442;2023-05-11T04:52:02;101505.34;;;12.55;100.00
71966;BME280;59836;52.132;5.442;2023-05-11T04:54:28;101508.63;;;12.57;100.00
71966;BME280;59836;52.132;5.442;2023-05-11T04:56:56;101498.56;;;12.58;100.00
71966;BME280;59836;52.132;5.442;2023-05-11T04:59:22;101512.97;;;12.58;100.00
71966;BME280;59836;52.132;5.442;2023-05-11T05:01:49;101511.09;;;12.59;100.00
71966;BME280;59836;52.132;5.442;2023-05-11T05:04:15;101514.91;;;12.58;100.00
71966;BME280;59836;52.132;5.442;2023-05-11T05:06:42;101516.78;;;12.57;100.00
71966;BME280;59836;52.132;5.442;2023-05-11T05:09:08;101524.16;;;12.57;100.00
71966;BME280;59836;52.132;5.442;2023-05-11T05:11:36;101517.88;;;12.56;100.00
71966;BME280;59836;52.132;5.442;2023-05-11T05:14:02;101517.63;;;12.58;100.00
71966;BME280;59836;52.132;5.442;2023-05-11T05:16:29;101520.34;;;12.58;100.00
71966;BME280;59836;52.132;5.442;2023-05-11T05:18:57;101514.63;;;12.59;100.00
71966;BME280;59836;52.132;5.442;2023-05-11T05:21:24;101517.09;;;12.61;100.00
71966;BME280;59836;52.132;5.442;2023-05-11T05:23:50;101519.53;;;12.62;100.00
71966;BME280;59836;52.132;5.442;2023-05-11T05:26:17;101523.88;;;12.63;100.00
71966;BME280;59836;52.132;5.442;2023-05-11T05:28:43;101517.91;;;12.66;100.00
71966;BME280;59836;52.132;5.442;2023-05-11T05:31:10;101519.81;;;12.66;100.00
71966;BME280;59836;52.132;5.442;2023-05-11T05:33:36;101528.78;;;12.66;100.00
71966;BME280;59836;52.132;5.442;2023-05-11T05:36:03;101530.97;;;12.69;100.00
71966;BME280;59836;52.132;5.442;2023-05-11T05:38:29;101526.88;;;12.72;100.00
71966;BME280;59836;52.132;5.442;2023-05-11T05:40:56;101535.59;;;12.74;100.00
71966;BME280;59836;52.132;5.442;2023-05-11T05:43:22;101535.59;;;12.74;100.00
71966;BME280;59836;52.132;5.442;2023-05-11T05:45:48;101539.41;;;12.73;100.00
71966;BME280;59836;52.132;5.442;2023-05-11T05:48:15;101535.34;;;12.76;100.00
71966;BME280;59836;52.132;5.442;2023-05-11T05:50:42;101538.06;;;12.76;100.00
71966;BME280;59836;52.132;5.442;2023-05-11T05:53:08;101547.03;;;12.76;100.00
71966;BME280;59836;52.132;5.442;2023-05-11T05:55:35;101546.78;;;12.78;100.00
71966;BME280;59836;52.132;5.442;2023-05-11T05:58:01;101549.22;;;12.79;100.00
71966;BME280;59836;52.132;5.442;2023-05-11T06:00:27;101556.63;;;12.84;100.00
71966;BME280;59836;52.132;5.442;2023-05-11T06:02:54;101559.06;;;12.85;100.00
71966;BME280;59836;52.132;5.442;2023-05-11T06:05:20;101562.34;;;12.88;100.00
71966;BME280;59836;52.132;5.442;2023-05-11T06:07:47;101566.13;;;12.87;100.00
71966;BME280;59836;52.132;5.442;2023-05-11T06:10:33;101559.88;;;12.86;100.00
71966;BME280;59836;52.132;5.442;2023-05-11T06:13:07;101575.69;;;12.89;100.00
71966;BME280;59836;52.132;5.442;2023-05-11T06:15:41;101570.25;;;12.89;100.00
71966;BME280;59836;52.132;5.442;2023-05-11T06:18:21;101570.25;;;12.89;100.00
71966;BME280;59836;52.132;5.442;2023-05-11T06:20:55;101571.06;;;12.90;100.00
71966;BME280;59836;52.132;5.442;2023-05-11T06:23:31;101569.72;;;12.92;100.00
71966;BME280;59836;52.132;5.442;2023-05-11T06:25:57;101568.06;;;12.91;100.00
71966;BME280;59836;52.132;5.442;2023-05-11T06:28:24;101576.78;;;12.93;100.00
71966;BME280;59836;52.132;5.442;2023-05-11T06:30:50;101569.97;;;12.96;100.00
71966;BME280;59836;52.132;5.442;2023-05-11T06:33:17;101574.09;;;12.98;100.00
71966;BME280;59836;52.132;5.442;2023-05-11T06:35:43;101570.28;;;12.99;100.00
71966;BME280;59836;52.132;5.442;2023-05-11T06:38:10;101576.28;;;13.02;100.00
71966;BME280;59836;52.132;5.442;2023-05-11T06:40:36;101571.38;;;13.04;100.00
71966;BME280;59836;52.132;5.442;2023-05-11T06:43:02;101575.75;;;13.05;100.00
71966;BME280;59836;52.132;5.442;2023-05-11T06:45:29;101577.94;;;13.08;100.00
71966;BME280;59836;52.132;5.442;2023-05-11T06:47:56;101576.84;;;13.09;100.00
71966;BME280;59836;52.132;5.442;2023-05-11T06:50:22;101582.84;;;13.11;100.00
71966;BME280;59836;52.132;5.442;2023-05-11T06:52:52;101580.66;;;13.13;100.00
71966;BME280;59836;52.132;5.442;2023-05-11T06:55:19;101586.66;;;13.15;100.00
71966;BME280;59836;52.132;5.442;2023-05-11T06:57:46;101582.84;;;13.16;100.00
71966;BME280;59836;52.132;5.442;2023-05-11T07:00:12;101584.50;;;13.17;100.00
71966;BME280;59836;52.132;5.442;2023-05-11T07:02:39;101577.97;;;13.18;100.00
71966;BME280;59836;52.132;5.442;2023-05-11T07:05:06;101585.59;;;13.21;100.00
71966;BME280;59836;52.132;5.442;2023-05-11T07:07:32;101580.69;;;13.18;100.00
71966;BME280;59836;52.132;5.442;2023-05-11T07:09:59;101576.88;;;13.19;100.00
71966;BME280;59836;52.132;5.442;2023-05-11T07:12:25;101578.22;;;13.22;100.00
71966;BME280;59836;52.132;5.442;2023-05-11T07:14:51;101582.88;;;13.21;100.00
71966;BME280;59836;52.132;5.442;2023-05-11T07:17:18;101580.69;;;13.23;100.00
71966;BME280;59836;52.132;5.442;2023-05-11T07:19:44;101586.94;;;13.24;100.00
71966;BME280;59836;52.132;5.442;2023-05-11T07:22:11;101590.50;;;13.24;100.00
71966;BME280;59836;52.132;5.442;2023-05-11T07:24:40;101583.94;;;13.25;100.00
71966;BME280;59836;52.132;5.442;2023-05-11T07:27:06;101585.56;;;13.26;100.00
71966;BME280;59836;52.132;5.442;2023-05-11T07:29:33;101590.22;;;13.26;100.00
71966;BME280;59836;52.132;5.442;2023-05-11T07:31:59;101595.38;;;13.27;100.00
71966;BME280;59836;52.132;5.442;2023-05-11T07:34:26;101592.13;;;13.31;100.00
71966;BME280;59836;52.132;5.442;2023-05-11T07:36:52;101585.31;;;13.33;100.00
71966;BME280;59836;52.132;5.442;2023-05-11T07:39:18;101590.25;;;13.36;100.00
71966;BME280;59836;52.132;5.442;2023-05-11T07:41:45;101588.88;;;13.39;100.00
71966;BME280;59836;52.132;5.442;2023-05-11T07:44:12;101585.88;;;13.40;100.00
71966;BME280;59836;52.132;5.442;2023-05-11T07:46:38;101586.69;;;13.41;100.00
71966;BME280;59836;52.132;5.442;2023-05-11T07:49:05;101586.69;;;13.41;100.00
71966;BME280;59836;52.132;5.442;2023-05-11T07:51:45;101590.81;;;13.43;99.69
71966;BME280;59836;52.132;5.442;2023-05-11T07:54:12;101592.72;;;13.43;100.00
71966;BME280;59836;52.132;5.442;2023-05-11T07:56:38;101591.63;;;13.44;99.59
71966;BME280;59836;52.132;5.442;2023-05-11T07:59:05;101591.63;;;13.44;99.63
71966;BME280;59836;52.132;5.442;2023-05-11T08:01:31;101588.38;;;13.47;99.36
71966;BME280;59836;52.132;5.442;2023-05-11T08:03:58;101593.28;;;13.50;99.49
71966;BME280;59836;52.132;5.442;2023-05-11T08:06:25;101593.28;;;13.55;99.74
71966;BME280;59836;52.132;5.442;2023-05-11T08:08:51;101586.47;;;13.58;100.00
71966;BME280;59836;52.132;5.442;2023-05-11T08:11:18;101591.09;;;13.57;99.46
71966;BME280;59836;52.132;5.442;2023-05-11T08:13:44;101600.38;;;13.56;99.45
71966;BME280;59836;52.132;5.442;2023-05-11T08:16:11;101597.09;;;13.60;99.82
71966;BME280;59836;52.132;5.442;2023-05-11T08:18:37;101602.00;;;13.63;99.56
71966;BME280;59836;52.132;5.442;2023-05-11T08:21:04;101601.47;;;13.61;100.00
71966;BME280;59836;52.132;5.442;2023-05-11T08:23:30;101599.84;;;13.65;100.00
71966;BME280;59836;52.132;5.442;2023-05-11T08:25:57;101596.03;;;13.71;99.46
71966;BME280;59836;52.132;5.442;2023-05-11T08:28:23;101596.84;;;13.77;99.36
71966;BME280;59836;52.132;5.442;2023-05-11T08:30:56;101585.66;;;13.83;98.36
71966;BME280;59836;52.132;5.442;2023-05-11T08:33:23;101600.38;;;13.87;97.87
71966;BME280;59836;52.132;5.442;2023-05-11T08:36:04;101597.66;;;13.87;97.97
71966;BME280;59836;52.132;5.442;2023-05-11T08:38:30;101589.72;;;13.91;97.97
71966;BME280;59836;52.132;5.442;2023-05-11T08:40:57;101586.47;;;13.99;97.66
71966;BME280;59836;52.132;5.442;2023-05-11T08:43:25;101593.53;;;14.06;97.31
71966;BME280;59836;52.132;5.442;2023-05-11T08:45:55;101587.00;;;14.12;96.57
71966;BME280;59836;52.132;5.442;2023-05-11T08:48:23;101592.19;;;14.13;96.48
71966;BME280;59836;52.132;5.442;2023-05-11T08:50:49;101594.91;;;14.13;96.32
71966;BME280;59836;52.132;5.442;2023-05-11T08:53:16;101584.53;;;14.15;96.30
71966;BME280;59836;52.132;5.442;2023-05-11T08:55:42;101590.56;;;14.12;96.03
71966;BME280;59836;52.132;5.442;2023-05-11T08:58:09;101595.47;;;14.15;95.09
71966;BME280;59836;52.132;5.442;2023-05-11T09:00:36;101589.69;;;14.22;95.06
71966;BME280;59836;52.132;5.442;2023-05-11T09:03:02;101594.59;;;14.30;93.78
71966;BME280;59836;52.132;5.442;2023-05-11T09:05:30;101593.75;;;14.35;93.55
71966;BME280;59836;52.132;5.442;2023-05-11T09:08:02;101586.38;;;14.41;93.55
71966;BME280;59836;52.132;5.442;2023-05-11T09:10:31;101582.25;;;14.49;93.45
71966;BME280;59836;52.132;5.442;2023-05-11T09:12:58;101582.22;;;14.59;93.13
71966;BME280;59836;52.132;5.442;2023-05-11T09:15:24;101580.56;;;14.68;91.75
71966;BME280;59836;52.132;5.442;2023-05-11T09:17:50;101581.63;;;14.78;92.37
71966;BME280;59836;52.132;5.442;2023-05-11T09:20:27;101588.41;;;14.85;89.83
71966;BME280;59836;52.132;5.442;2023-05-11T09:22:54;101582.38;;;14.94;88.66
71966;BME280;59836;52.132;5.442;2023-05-11T09:25:22;101586.19;;;14.98;85.90
71966;BME280;59836;52.132;5.442;2023-05-11T09:27:49;101586.47;;;14.96;86.49
71966;BME280;59836;52.132;5.442;2023-05-11T09:30:18;101591.97;;;14.91;86.59
71966;BME280;59836;52.132;5.442;2023-05-11T09:32:56;101581.56;;;14.93;85.77
71966;BME280;59836;52.132;5.442;2023-05-11T09:35:24;101583.47;;;14.93;85.89
71966;BME280;59836;52.132;5.442;2023-05-11T09:38:10;101584.00;;;14.95;86.52
71966;BME280;59836;52.132;5.442;2023-05-11T09:40:42;101584.00;;;14.95;86.61
71966;BME280;59836;52.132;5.442;2023-05-11T09:43:29;101581.00;;;14.96;85.83
71966;BME280;59836;52.132;5.442;2023-05-11T09:45:57;101580.97;;;15.01;87.57
71966;BME280;59836;52.132;5.442;2023-05-11T09:48:29;101576.63;;;15.00;86.15
71966;BME280;59836;52.132;5.442;2023-05-11T09:51:00;101586.44;;;15.01;87.67
71966;BME280;59836;52.132;5.442;2023-05-11T09:56:04;101589.41;;;15.05;88.56
71966;BME280;59836;52.132;5.442;2023-05-11T09:58:51;101588.06;;;15.08;88.11
71966;BME280;59836;52.132;5.442;2023-05-11T10:01:31;101584.75;;;15.11;86.69
71966;BME280;59836;52.132;5.442;2023-05-11T10:04:00;101586.94;;;15.14;85.69
71966;BME280;59836;52.132;5.442;2023-05-11T10:06:51;101587.72;;;15.14;83.40
71966;BME280;59836;52.132;5.442;2023-05-11T10:09:22;101580.38;;;15.15;83.33
71966;BME280;59836;52.132;5.442;2023-05-11T10:11:49;101584.75;;;15.11;84.31
71966;BME280;59836;52.132;5.442;2023-05-11T10:14:17;101580.97;;;15.07;86.38
71966;BME280;59836;52.132;5.442;2023-05-11T10:16:45;101584.81;;;15.00;87.75
71966;BME280;59836;52.132;5.442;2023-05-11T10:19:12;101590.00;;;14.97;88.38
71966;BME280;59836;52.132;5.442;2023-05-11T10:21:39;101589.47;;;14.95;89.86
71966;BME280;59836;52.132;5.442;2023-05-11T10:24:06;101597.97;;;14.93;89.95
71966;BME280;59836;52.132;5.442;2023-05-11T10:26:33;101587.59;;;14.90;91.00
71966;BME280;59836;52.132;5.442;2023-05-11T10:29:00;101589.50;;;14.84;90.70
71966;BME280;59836;52.132;5.442;2023-05-11T10:31:28;101590.91;;;14.82;90.87
71966;BME280;59836;52.132;5.442;2023-05-11T10:33:56;101593.66;;;14.76;92.03
71966;BME280;59836;52.132;5.442;2023-05-11T10:36:23;101598.59;;;14.69;92.06
71966;BME280;59836;52.132;5.442;2023-05-11T10:38:50;101594.75;;;14.65;92.67
71966;BME280;59836;52.132;5.442;2023-05-11T10:41:32;101597.50;;;14.60;93.02
71966;BME280;59836;52.132;5.442;2023-05-11T10:46:55;101609.56;;;14.49;93.76
71966;BME280;59836;52.132;5.442;2023-05-11T10:52:33;101614.25;;;14.27;95.32
71966;BME280;59836;52.132;5.442;2023-05-11T10:58:05;101623.28;;;14.12;96.24
71966;BME280;59836;52.132;5.442;2023-05-11T11:03:25;101631.47;;;13.97;98.00
71966;BME280;59836;52.132;5.442;2023-05-11T11:05:52;101630.38;;;13.93;98.84
71966;BME280;59836;52.132;5.442;2023-05-11T11:08:19;101627.38;;;13.84;99.50
71966;BME280;59836;52.132;5.442;2023-05-11T11:10:45;101628.47;;;13.78;99.57
71966;BME280;59836;52.132;5.442;2023-05-11T11:13:15;101628.19;;;13.74;100.00
71966;BME280;59836;52.132;5.442;2023-05-11T11:18:22;101623.84;;;13.78;100.00
71966;BME280;59836;52.132;5.442;2023-05-11T11:20:50;101618.38;;;13.78;100.00
71966;BME280;59836;52.132;5.442;2023-05-11T11:26:05;101616.19;;;13.75;100.00
71966;BME280;59836;52.132;5.442;2023-05-11T11:29:12;101612.38;;;13.76;100.00
71966;BME280;59836;52.132;5.442;2023-05-11T11:31:38;101606.38;;;13.74;100.00
71966;BME280;59836;52.132;5.442;2023-05-11T11:42:08;101598.75;;;13.76;100.00
71966;BME280;59836;52.132;5.442;2023-05-11T11:44:36;101601.47;;;13.76;100.00
71966;BME280;59836;52.132;5.442;2023-05-11T11:47:16;101609.66;;;13.76;100.00
71966;BME280;59836;52.132;5.442;2023-05-11T11:49:44;101612.38;;;13.71;100.00
71966;BME280;59836;52.132;5.442;2023-05-11T11:52:13;101614.56;;;13.74;100.00
71966;BME280;59836;52.132;5.442;2023-05-11T11:54:40;101612.13;;;13.78;100.00
71966;BME280;59836;52.132;5.442;2023-05-11T12:00:05;101620.81;;;13.80;100.00
71966;BME280;59836;52.132;5.442;2023-05-11T12:02:33;101621.09;;;13.78;100.00
71966;BME280;59836;52.132;5.442;2023-05-11T12:05:00;101625.19;;;13.81;100.00
71966;BME280;59836;52.132;5.442;2023-05-11T12:07:32;101622.19;;;13.77;100.00
71966;BME280;59836;52.132;5.442;2023-05-11T12:10:01;101623.84;;;13.78;100.00
71966;BME280;59836;52.132;5.442;2023-05-11T12:12:29;101626.56;;;13.78;100.00
71966;BME280;59836;52.132;5.442;2023-05-11T12:14:56;101627.66;;;13.82;100.00
71966;BME280;59836;52.132;5.442;2023-05-11T12:17:27;101625.22;;;13.76;100.00
71966;BME280;59836;52.132;5.442;2023-05-11T12:20:10;101621.66;;;13.75;100.00
71966;BME280;59836;52.132;5.442;2023-05-11T12:22:37;101613.19;;;13.82;100.00
71966;BME280;59836;52.132;5.442;2023-05-11T12:25:04;101617.56;;;13.88;100.00
71966;BME280;59836;52.132;5.442;2023-05-11T12:27:31;101613.47;;;13.85;100.00
71966;BME280;59836;52.132;5.442;2023-05-11T12:29:57;101613.47;;;13.85;100.00
71966;BME280;59836;52.132;5.442;2023-05-11T12:32:27;101614.00;;;13.87;100.00
71966;BME280;59836;52.132;5.442;2023-05-11T12:35:01;101606.63;;;13.88;100.00
71966;BME280;59836;52.132;5.442;2023-05-11T12:37:29;101607.47;;;13.88;100.00
71966;BME280;59836;52.132;5.442;2023-05-11T12:39:56;101606.09;;;13.91;100.00
71966;BME280;59836;52.132;5.442;2023-05-11T12:42:23;101598.75;;;13.97;100.00
71966;BME280;59836;52.132;5.442;2023-05-11T12:44:50;101614.28;;;14.01;100.00
71966;BME280;59836;52.132;5.442;2023-05-11T12:47:16;101611.28;;;14.03;100.00
71966;BME280;59836;52.132;5.442;2023-05-11T12:49:43;101612.38;;;13.97;100.00
71966;BME280;59836;52.132;5.442;2023-05-11T12:52:12;101611.53;;;14.01;100.00
71966;BME280;59836;52.132;5.442;2023-05-11T12:54:47;101608.56;;;14.08;100.00
71966;BME280;59836;52.132;5.442;2023-05-11T12:57:41;101605.00;;;14.13;100.00
71966;BME280;59836;52.132;5.442;2023-05-11T13:00:15;101604.19;;;14.17;100.00
71966;BME280;59836;52.132;5.442;2023-05-11T13:02:51;101610.19;;;14.20;100.00
71966;BME280;59836;52.132;5.442;2023-05-11T13:05:25;101602.53;;;14.16;100.00
71966;BME280;59836;52.132;5.442;2023-05-11T13:08:11;101602.00;;;14.20;100.00
71966;BME280;59836;52.132;5.442;2023-05-11T13:10:39;101606.91;;;14.17;100.00
71966;BME280;59836;52.132;5.442;2023-05-11T13:13:06;101602.53;;;14.16;100.00
71966;BME280;59836;52.132;5.442;2023-05-11T13:15:32;101615.09;;;14.12;100.00
71966;BME280;59836;52.132;5.442;2023-05-11T13:18:01;101611.00;;;14.05;100.00
71966;BME280;59836;52.132;5.442;2023-05-11T13:20:30;101614.00;;;14.03;100.00
71966;BME280;59836;52.132;5.442;2023-05-11T13:23:08;101622.19;;;13.98;100.00
71966;BME280;59836;52.132;5.442;2023-05-11T13:25:50;101618.94;;;13.91;100.00
71966;BME280;59836;52.132;5.442;2023-05-11T13:28:20;101615.09;;;13.86;100.00